sensor_id;sensor_type;location;lat;lon;timestamp;P1;durP1;ratioP1;P2;durP2;ratioP2
13263;SDS011;6700;51.988;7.646;2022-08-01T00:00:36;15.60;;;10.53;;
13263;SDS011;6700;51.988;7.646;2022-08-01T00:03:03;12.90;;;10.47;;
13263;SDS011;6700;51.988;7.646;2022-08-01T00:05:31;14.53;;;9.60;;
13263;SDS011;6700;51.988;7.646;2022-08-01T00:07:58;14.87;;;9.73;;
13263;SDS011;6700;51.988;7.646;2022-08-01T00:10:27;14.87;;;9.67;;
13263;SDS011;6700;51.988;7.646;2022-08-01T00:12:54;18.70;;;10.00;;
13263;SDS011;6700;51.988;7.646;2022-08-01T00:15:21;13.83;;;9.53;;
13263;SDS011;6700;51.988;7.646;2022-08-01T00:17:49;11.27;;;9.70;;
13263;SDS011;6700;51.988;7.646;2022-08-01T00:20:16;15.43;;;9.00;;
13263;SDS011;6700;51.988;7.646;2022-08-01T00:22:43;13.37;;;9.20;;
13263;SDS011;6700;51.988;7.646;2022-08-01T00:25:10;12.80;;;9.27;;
13263;SDS011;6700;51.988;7.646;2022-08-01T00:27:38;12.40;;;9.47;;
13263;SDS011;6700;51.988;7.646;2022-08-01T00:30:05;14.80;;;8.90;;
13263;SDS011;6700;51.988;7.646;2022-08-01T00:32:39;12.40;;;8.87;;
13263;SDS011;6700;51.988;7.646;2022-08-01T00:35:06;13.93;;;8.80;;
13263;SDS011;6700;51.988;7.646;2022-08-01T00:37:33;10.63;;;9.43;;
13263;SDS011;6700;51.988;7.646;2022-08-01T00:40:01;13.40;;;9.00;;
13263;SDS011;6700;51.988;7.646;2022-08-01T00:42:29;9.83;;;8.83;;
13263;SDS011;6700;51.988;7.646;2022-08-01T00:44:56;12.40;;;9.47;;
13263;SDS011;6700;51.988;7.646;2022-08-01T00:47:23;15.30;;;8.93;;
13263;SDS011;6700;51.988;7.646;2022-08-01T00:49:50;13.47;;;8.97;;
13263;SDS011;6700;51.988;7.646;2022-08-01T00:52:18;10.73;;;9.23;;
13263;SDS011;6700;51.988;7.646;2022-08-01T00:54:45;10.00;;;8.50;;
13263;SDS011;6700;51.988;7.646;2022-08-01T00:57:12;12.10;;;9.17;;
13263;SDS011;6700;51.988;7.646;2022-08-01T00:59:40;12.37;;;9.17;;
13263;SDS011;6700;51.988;7.646;2022-08-01T01:02:08;14.40;;;9.27;;
13263;SDS011;6700;51.988;7.646;2022-08-01T01:04:40;12.93;;;8.90;;
13263;SDS011;6700;51.988;7.646;2022-08-01T01:09:51;12.00;;;8.80;;
13263;SDS011;6700;51.988;7.646;2022-08-01T01:17:27;13.60;;;10.47;;
13263;SDS011;6700;51.988;7.646;2022-08-01T01:20:15;10.80;;;8.63;;
13263;SDS011;6700;51.988;7.646;2022-08-01T01:30:23;14.80;;;9.83;;
13263;SDS011;6700;51.988;7.646;2022-08-01T01:32:51;11.90;;;9.43;;
13263;SDS011;6700;51.988;7.646;2022-08-01T01:35:24;10.40;;;8.97;;
13263;SDS011;6700;51.988;7.646;2022-08-01T01:37:54;15.27;;;9.77;;
13263;SDS011;6700;51.988;7.646;2022-08-01T01:40:23;13.23;;;10.00;;
13263;SDS011;6700;51.988;7.646;2022-08-01T01:42:50;13.43;;;9.53;;
13263;SDS011;6700;51.988;7.646;2022-08-01T01:45:18;15.70;;;9.80;;
13263;SDS011;6700;51.988;7.646;2022-08-01T01:47:46;13.10;;;8.80;;
13263;SDS011;6700;51.988;7.646;2022-08-01T01:50:13;14.00;;;9.60;;
13263;SDS011;6700;51.988;7.646;2022-08-01T01:52:42;14.60;;;9.30;;
13263;SDS011;6700;51.988;7.646;2022-08-01T01:55:10;14.33;;;9.33;;
13263;SDS011;6700;51.988;7.646;2022-08-01T01:57:40;10.37;;;8.43;;
13263;SDS011;6700;51.988;7.646;2022-08-01T02:00:09;12.10;;;10.03;;
13263;SDS011;6700;51.988;7.646;2022-08-01T02:02:37;13.47;;;8.57;;
13263;SDS011;6700;51.988;7.646;2022-08-01T02:05:05;17.77;;;9.17;;
13263;SDS011;6700;51.988;7.646;2022-08-01T02:07:32;11.77;;;9.20;;
13263;SDS011;6700;51.988;7.646;2022-08-01T02:10:01;11.13;;;9.43;;
13263;SDS011;6700;51.988;7.646;2022-08-01T02:12:29;12.07;;;9.17;;
13263;SDS011;6700;51.988;7.646;2022-08-01T02:14:59;10.33;;;8.67;;
13263;SDS011;6700;51.988;7.646;2022-08-01T02:17:27;11.73;;;9.13;;
13263;SDS011;6700;51.988;7.646;2022-08-01T02:19:54;11.43;;;9.20;;
13263;SDS011;6700;51.988;7.646;2022-08-01T02:24:50;13.83;;;9.47;;
13263;SDS011;6700;51.988;7.646;2022-08-01T02:27:21;10.43;;;8.93;;
13263;SDS011;6700;51.988;7.646;2022-08-01T02:29:52;13.77;;;9.60;;
13263;SDS011;6700;51.988;7.646;2022-08-01T02:32:20;13.93;;;10.10;;
13263;SDS011;6700;51.988;7.646;2022-08-01T02:34:50;10.97;;;8.50;;
13263;SDS011;6700;51.988;7.646;2022-08-01T02:37:19;13.20;;;9.40;;
13263;SDS011;6700;51.988;7.646;2022-08-01T02:39:47;10.87;;;8.80;;
13263;SDS011;6700;51.988;7.646;2022-08-01T02:42:15;11.40;;;9.13;;
13263;SDS011;6700;51.988;7.646;2022-08-01T02:44:43;11.13;;;9.53;;
13263;SDS011;6700;51.988;7.646;2022-08-01T02:47:11;12.23;;;8.80;;
13263;SDS011;6700;51.988;7.646;2022-08-01T02:49:41;15.10;;;10.50;;
13263;SDS011;6700;51.988;7.646;2022-08-01T02:52:12;16.50;;;11.00;;
13263;SDS011;6700;51.988;7.646;2022-08-01T02:54:40;19.63;;;9.57;;
13263;SDS011;6700;51.988;7.646;2022-08-01T02:57:08;15.27;;;9.33;;
13263;SDS011;6700;51.988;7.646;2022-08-01T02:59:39;12.33;;;9.37;;
13263;SDS011;6700;51.988;7.646;2022-08-01T03:02:07;13.67;;;9.50;;
13263;SDS011;6700;51.988;7.646;2022-08-01T03:04:36;13.10;;;9.10;;
13263;SDS011;6700;51.988;7.646;2022-08-01T03:07:06;13.43;;;9.57;;
13263;SDS011;6700;51.988;7.646;2022-08-01T03:09:36;11.47;;;8.57;;
13263;SDS011;6700;51.988;7.646;2022-08-01T03:12:04;15.30;;;9.40;;
13263;SDS011;6700;51.988;7.646;2022-08-01T03:14:34;11.77;;;8.97;;
13263;SDS011;6700;51.988;7.646;2022-08-01T03:17:02;11.43;;;8.80;;
13263;SDS011;6700;51.988;7.646;2022-08-01T03:19:30;10.23;;;8.37;;
13263;SDS011;6700;51.988;7.646;2022-08-01T03:21:58;11.57;;;8.40;;
13263;SDS011;6700;51.988;7.646;2022-08-01T03:24:26;11.57;;;8.33;;
13263;SDS011;6700;51.988;7.646;2022-08-01T03:26:54;13.50;;;7.87;;
13263;SDS011;6700;51.988;7.646;2022-08-01T03:29:25;12.43;;;8.40;;
13263;SDS011;6700;51.988;7.646;2022-08-01T03:31:52;9.20;;;7.07;;
13263;SDS011;6700;51.988;7.646;2022-08-01T03:34:20;9.93;;;7.90;;
13263;SDS011;6700;51.988;7.646;2022-08-01T03:36:49;9.47;;;7.87;;
13263;SDS011;6700;51.988;7.646;2022-08-01T03:39:17;12.43;;;7.77;;
13263;SDS011;6700;51.988;7.646;2022-08-01T03:41:50;11.00;;;8.60;;
13263;SDS011;6700;51.988;7.646;2022-08-01T03:44:22;9.83;;;7.47;;
13263;SDS011;6700;51.988;7.646;2022-08-01T03:46:57;12.27;;;7.70;;
13263;SDS011;6700;51.988;7.646;2022-08-01T03:49:32;12.47;;;7.70;;
13263;SDS011;6700;51.988;7.646;2022-08-01T03:52:03;10.70;;;8.07;;
13263;SDS011;6700;51.988;7.646;2022-08-01T03:54:34;12.73;;;8.10;;
13263;SDS011;6700;51.988;7.646;2022-08-01T03:57:02;9.33;;;7.70;;
13263;SDS011;6700;51.988;7.646;2022-08-01T03:59:30;12.50;;;8.70;;
13263;SDS011;6700;51.988;7.646;2022-08-01T04:01:59;12.97;;;7.97;;
13263;SDS011;6700;51.988;7.646;2022-08-01T04:04:27;11.87;;;7.53;;
13263;SDS011;6700;51.988;7.646;2022-08-01T04:06:55;8.67;;;7.40;;
13263;SDS011;6700;51.988;7.646;2022-08-01T04:09:23;8.97;;;7.47;;
13263;SDS011;6700;51.988;7.646;2022-08-01T04:11:50;12.27;;;7.40;;
13263;SDS011;6700;51.988;7.646;2022-08-01T04:14:17;9.43;;;7.37;;
13263;SDS011;6700;51.988;7.646;2022-08-01T04:16:45;9.37;;;7.47;;
13263;SDS011;6700;51.988;7.646;2022-08-01T04:19:13;9.60;;;7.57;;
13263;SDS011;6700;51.988;7.646;2022-08-01T04:21:41;11.90;;;7.53;;
13263;SDS011;6700;51.988;7.646;2022-08-01T04:24:15;11.03;;;7.50;;
13263;SDS011;6700;51.988;7.646;2022-08-01T04:26:44;9.67;;;7.57;;
13263;SDS011;6700;51.988;7.646;2022-08-01T04:29:12;10.10;;;7.67;;
13263;SDS011;6700;51.988;7.646;2022-08-01T04:31:43;8.60;;;6.73;;
13263;SDS011;6700;51.988;7.646;2022-08-01T04:34:12;10.50;;;7.30;;
13263;SDS011;6700;51.988;7.646;2022-08-01T04:36:41;8.33;;;6.80;;
13263;SDS011;6700;51.988;7.646;2022-08-01T04:39:08;9.03;;;6.33;;
13263;SDS011;6700;51.988;7.646;2022-08-01T04:41:36;8.47;;;6.47;;
13263;SDS011;6700;51.988;7.646;2022-08-01T04:44:04;13.03;;;5.73;;
13263;SDS011;6700;51.988;7.646;2022-08-01T04:46:31;6.90;;;5.53;;
13263;SDS011;6700;51.988;7.646;2022-08-01T04:48:59;10.00;;;6.30;;
13263;SDS011;6700;51.988;7.646;2022-08-01T04:51:26;6.90;;;6.20;;
13263;SDS011;6700;51.988;7.646;2022-08-01T04:53:54;6.27;;;5.37;;
13263;SDS011;6700;51.988;7.646;2022-08-01T04:56:22;6.30;;;5.37;;
13263;SDS011;6700;51.988;7.646;2022-08-01T04:58:49;6.30;;;4.80;;
13263;SDS011;6700;51.988;7.646;2022-08-01T05:01:48;9.77;;;5.10;;
13263;SDS011;6700;51.988;7.646;2022-08-01T05:04:15;5.63;;;4.90;;
13263;SDS011;6700;51.988;7.646;2022-08-01T05:06:42;7.10;;;5.57;;
13263;SDS011;6700;51.988;7.646;2022-08-01T05:09:10;5.87;;;5.07;;
13263;SDS011;6700;51.988;7.646;2022-08-01T05:11:37;8.43;;;5.23;;
13263;SDS011;6700;51.988;7.646;2022-08-01T05:14:04;7.93;;;5.40;;
13263;SDS011;6700;51.988;7.646;2022-08-01T05:16:32;8.47;;;5.17;;
13263;SDS011;6700;51.988;7.646;2022-08-01T05:19:00;5.60;;;4.73;;
13263;SDS011;6700;51.988;7.646;2022-08-01T05:21:28;6.77;;;5.57;;
13263;SDS011;6700;51.988;7.646;2022-08-01T05:23:55;8.97;;;4.83;;
13263;SDS011;6700;51.988;7.646;2022-08-01T05:26:24;6.37;;;4.83;;
13263;SDS011;6700;51.988;7.646;2022-08-01T05:28:51;7.60;;;5.00;;
13263;SDS011;6700;51.988;7.646;2022-08-01T05:31:18;5.73;;;4.83;;
13263;SDS011;6700;51.988;7.646;2022-08-01T05:33:46;7.13;;;5.30;;
13263;SDS011;6700;51.988;7.646;2022-08-01T05:36:13;5.80;;;5.30;;
13263;SDS011;6700;51.988;7.646;2022-08-01T05:38:40;5.47;;;4.83;;
13263;SDS011;6700;51.988;7.646;2022-08-01T05:41:08;6.90;;;5.27;;
13263;SDS011;6700;51.988;7.646;2022-08-01T05:43:35;8.27;;;5.83;;
13263;SDS011;6700;51.988;7.646;2022-08-01T05:46:02;6.40;;;5.57;;
13263;SDS011;6700;51.988;7.646;2022-08-01T05:48:29;6.97;;;6.33;;
13263;SDS011;6700;51.988;7.646;2022-08-01T05:50:57;6.23;;;5.60;;
13263;SDS011;6700;51.988;7.646;2022-08-01T05:53:24;5.53;;;5.00;;
13263;SDS011;6700;51.988;7.646;2022-08-01T05:55:52;6.00;;;5.40;;
13263;SDS011;6700;51.988;7.646;2022-08-01T05:58:19;7.63;;;5.20;;
13263;SDS011;6700;51.988;7.646;2022-08-01T06:00:47;6.17;;;5.50;;
13263;SDS011;6700;51.988;7.646;2022-08-01T06:03:14;5.90;;;5.30;;
13263;SDS011;6700;51.988;7.646;2022-08-01T06:05:42;6.73;;;5.30;;
13263;SDS011;6700;51.988;7.646;2022-08-01T06:08:10;6.20;;;5.53;;
13263;SDS011;6700;51.988;7.646;2022-08-01T06:10:37;9.90;;;5.97;;
13263;SDS011;6700;51.988;7.646;2022-08-01T06:13:06;7.50;;;6.67;;
13263;SDS011;6700;51.988;7.646;2022-08-01T06:15:33;6.00;;;5.40;;
13263;SDS011;6700;51.988;7.646;2022-08-01T06:18:01;12.43;;;5.97;;
13263;SDS011;6700;51.988;7.646;2022-08-01T06:20:28;5.27;;;4.77;;
13263;SDS011;6700;51.988;7.646;2022-08-01T06:22:55;7.50;;;5.70;;
13263;SDS011;6700;51.988;7.646;2022-08-01T06:25:25;6.07;;;5.47;;
13263;SDS011;6700;51.988;7.646;2022-08-01T06:27:52;8.37;;;4.90;;
13263;SDS011;6700;51.988;7.646;2022-08-01T06:30:19;8.27;;;5.67;;
13263;SDS011;6700;51.988;7.646;2022-08-01T06:32:47;6.93;;;5.50;;
13263;SDS011;6700;51.988;7.646;2022-08-01T06:35:15;6.50;;;5.23;;
13263;SDS011;6700;51.988;7.646;2022-08-01T06:37:44;5.93;;;5.33;;
13263;SDS011;6700;51.988;7.646;2022-08-01T06:40:13;6.20;;;5.43;;
13263;SDS011;6700;51.988;7.646;2022-08-01T06:42:43;5.60;;;4.97;;
13263;SDS011;6700;51.988;7.646;2022-08-01T06:45:13;6.87;;;5.27;;
13263;SDS011;6700;51.988;7.646;2022-08-01T06:47:43;8.53;;;5.90;;
13263;SDS011;6700;51.988;7.646;2022-08-01T06:50:16;6.67;;;5.97;;
13263;SDS011;6700;51.988;7.646;2022-08-01T06:52:44;6.37;;;5.77;;
13263;SDS011;6700;51.988;7.646;2022-08-01T06:55:12;6.87;;;5.63;;
13263;SDS011;6700;51.988;7.646;2022-08-01T06:57:49;7.37;;;5.80;;
13263;SDS011;6700;51.988;7.646;2022-08-01T07:00:17;6.33;;;5.53;;
13263;SDS011;6700;51.988;7.646;2022-08-01T07:02:49;7.50;;;6.20;;
13263;SDS011;6700;51.988;7.646;2022-08-01T07:05:16;5.70;;;5.20;;
13263;SDS011;6700;51.988;7.646;2022-08-01T07:07:45;6.43;;;5.83;;
13263;SDS011;6700;51.988;7.646;2022-08-01T07:10:12;6.67;;;6.00;;
13263;SDS011;6700;51.988;7.646;2022-08-01T07:12:41;6.37;;;4.90;;
13263;SDS011;6700;51.988;7.646;2022-08-01T07:15:09;5.80;;;5.20;;
13263;SDS011;6700;51.988;7.646;2022-08-01T07:17:40;5.47;;;4.97;;
13263;SDS011;6700;51.988;7.646;2022-08-01T07:20:08;5.27;;;4.77;;
13263;SDS011;6700;51.988;7.646;2022-08-01T07:22:36;6.73;;;5.37;;
13263;SDS011;6700;51.988;7.646;2022-08-01T07:25:04;5.37;;;4.87;;
13263;SDS011;6700;51.988;7.646;2022-08-01T07:27:33;5.30;;;4.80;;
13263;SDS011;6700;51.988;7.646;2022-08-01T07:30:00;5.20;;;4.70;;
13263;SDS011;6700;51.988;7.646;2022-08-01T07:32:28;6.03;;;5.40;;
13263;SDS011;6700;51.988;7.646;2022-08-01T07:34:55;5.80;;;5.30;;
13263;SDS011;6700;51.988;7.646;2022-08-01T07:37:25;7.03;;;5.93;;
13263;SDS011;6700;51.988;7.646;2022-08-01T07:40:12;5.20;;;4.70;;
13263;SDS011;6700;51.988;7.646;2022-08-01T07:42:40;4.47;;;4.07;;
13263;SDS011;6700;51.988;7.646;2022-08-01T07:45:10;4.93;;;4.50;;
13263;SDS011;6700;51.988;7.646;2022-08-01T07:47:37;5.60;;;4.70;;
13263;SDS011;6700;51.988;7.646;2022-08-01T07:50:06;6.70;;;5.70;;
13263;SDS011;6700;51.988;7.646;2022-08-01T07:52:34;5.80;;;5.20;;
13263;SDS011;6700;51.988;7.646;2022-08-01T07:55:01;5.83;;;5.33;;
13263;SDS011;6700;51.988;7.646;2022-08-01T07:57:29;5.67;;;4.80;;
13263;SDS011;6700;51.988;7.646;2022-08-01T07:59:56;5.80;;;5.00;;
13263;SDS011;6700;51.988;7.646;2022-08-01T08:02:23;5.72;;;5.13;;
13263;SDS011;6700;51.988;7.646;2022-08-01T08:04:51;8.17;;;5.80;;
13263;SDS011;6700;51.988;7.646;2022-08-01T08:07:18;6.07;;;5.47;;
13263;SDS011;6700;51.988;7.646;2022-08-01T08:09:45;5.20;;;4.70;;
13263;SDS011;6700;51.988;7.646;2022-08-01T08:12:16;7.73;;;5.10;;
13263;SDS011;6700;51.988;7.646;2022-08-01T08:14:54;6.13;;;4.67;;
13263;SDS011;6700;51.988;7.646;2022-08-01T08:17:22;4.50;;;4.10;;
13263;SDS011;6700;51.988;7.646;2022-08-01T08:19:51;6.30;;;4.33;;
13263;SDS011;6700;51.988;7.646;2022-08-01T08:22:18;5.10;;;3.85;;
13263;SDS011;6700;51.988;7.646;2022-08-01T08:24:45;4.63;;;4.22;;
13263;SDS011;6700;51.988;7.646;2022-08-01T08:27:13;4.07;;;3.78;;
13263;SDS011;6700;51.988;7.646;2022-08-01T08:29:41;5.22;;;4.28;;
13263;SDS011;6700;51.988;7.646;2022-08-01T08:32:10;3.90;;;3.60;;
13263;SDS011;6700;51.988;7.646;2022-08-01T08:34:37;4.72;;;3.90;;
13263;SDS011;6700;51.988;7.646;2022-08-01T08:37:04;3.72;;;3.42;;
13263;SDS011;6700;51.988;7.646;2022-08-01T08:39:34;3.63;;;3.33;;
13263;SDS011;6700;51.988;7.646;2022-08-01T08:42:07;6.28;;;3.47;;
13263;SDS011;6700;51.988;7.646;2022-08-01T08:44:34;4.40;;;4.00;;
13263;SDS011;6700;51.988;7.646;2022-08-01T08:47:02;4.07;;;3.78;;
13263;SDS011;6700;51.988;7.646;2022-08-01T08:49:34;4.32;;;3.92;;
13263;SDS011;6700;51.988;7.646;2022-08-01T08:52:02;4.28;;;3.80;;
13263;SDS011;6700;51.988;7.646;2022-08-01T08:54:31;4.63;;;3.85;;
13263;SDS011;6700;51.988;7.646;2022-08-01T08:57:00;5.22;;;4.05;;
13263;SDS011;6700;51.988;7.646;2022-08-01T08:59:28;4.93;;;4.53;;
13263;SDS011;6700;51.988;7.646;2022-08-01T09:01:56;4.95;;;4.25;;
13263;SDS011;6700;51.988;7.646;2022-08-01T09:04:25;5.00;;;4.45;;
13263;SDS011;6700;51.988;7.646;2022-08-01T09:06:56;6.25;;;5.00;;
13263;SDS011;6700;51.988;7.646;2022-08-01T09:09:24;7.00;;;4.70;;
13263;SDS011;6700;51.988;7.646;2022-08-01T09:11:51;4.10;;;3.80;;
13263;SDS011;6700;51.988;7.646;2022-08-01T09:14:24;4.57;;;3.88;;
13263;SDS011;6700;51.988;7.646;2022-08-01T09:17:01;3.80;;;3.50;;
13263;SDS011;6700;51.988;7.646;2022-08-01T09:19:37;4.97;;;3.63;;
13263;SDS011;6700;51.988;7.646;2022-08-01T09:22:09;4.20;;;3.90;;
13263;SDS011;6700;51.988;7.646;2022-08-01T09:24:37;3.75;;;3.25;;
13263;SDS011;6700;51.988;7.646;2022-08-01T09:27:16;4.72;;;3.38;;
13263;SDS011;6700;51.988;7.646;2022-08-01T09:29:48;3.65;;;3.35;;
13263;SDS011;6700;51.988;7.646;2022-08-01T09:32:28;5.05;;;3.25;;
13263;SDS011;6700;51.988;7.646;2022-08-01T09:37:47;4.03;;;3.50;;
13263;SDS011;6700;51.988;7.646;2022-08-01T09:40:14;3.85;;;3.55;;
13263;SDS011;6700;51.988;7.646;2022-08-01T09:42:42;4.10;;;3.70;;
13263;SDS011;6700;51.988;7.646;2022-08-01T09:45:09;4.57;;;3.97;;
13263;SDS011;6700;51.988;7.646;2022-08-01T09:47:48;4.07;;;3.78;;
13263;SDS011;6700;51.988;7.646;2022-08-01T09:50:16;8.00;;;3.85;;
13263;SDS011;6700;51.988;7.646;2022-08-01T09:52:48;3.92;;;3.55;;
13263;SDS011;6700;51.988;7.646;2022-08-01T09:55:21;3.90;;;3.60;;
13263;SDS011;6700;51.988;7.646;2022-08-01T09:57:55;4.00;;;3.70;;
13263;SDS011;6700;51.988;7.646;2022-08-01T10:00:24;4.00;;;3.60;;
13263;SDS011;6700;51.988;7.646;2022-08-01T10:03:21;4.90;;;3.60;;
13263;SDS011;6700;51.988;7.646;2022-08-01T10:05:49;3.40;;;3.20;;
13263;SDS011;6700;51.988;7.646;2022-08-01T10:08:19;3.33;;;3.03;;
13263;SDS011;6700;51.988;7.646;2022-08-01T10:11:08;2.75;;;2.47;;
13263;SDS011;6700;51.988;7.646;2022-08-01T10:13:37;4.43;;;2.50;;
13263;SDS011;6700;51.988;7.646;2022-08-01T10:16:06;3.40;;;2.77;;
13263;SDS011;6700;51.988;7.646;2022-08-01T10:18:35;3.87;;;3.00;;
13263;SDS011;6700;51.988;7.646;2022-08-01T10:21:03;5.80;;;2.80;;
13263;SDS011;6700;51.988;7.646;2022-08-01T10:23:36;4.00;;;3.53;;
13263;SDS011;6700;51.988;7.646;2022-08-01T10:26:06;4.30;;;3.92;;
13263;SDS011;6700;51.988;7.646;2022-08-01T10:28:35;3.93;;;3.60;;
13263;SDS011;6700;51.988;7.646;2022-08-01T10:31:04;3.87;;;3.53;;
13263;SDS011;6700;51.988;7.646;2022-08-01T10:33:41;5.13;;;3.38;;
13263;SDS011;6700;51.988;7.646;2022-08-01T10:36:21;3.28;;;2.97;;
13263;SDS011;6700;51.988;7.646;2022-08-01T10:41:27;3.33;;;2.92;;
13263;SDS011;6700;51.988;7.646;2022-08-01T10:43:56;5.25;;;3.40;;
13263;SDS011;6700;51.988;7.646;2022-08-01T10:46:24;3.63;;;3.08;;
13263;SDS011;6700;51.988;7.646;2022-08-01T10:49:27;3.72;;;3.05;;
13263;SDS011;6700;51.988;7.646;2022-08-01T10:51:47;5.30;;;3.33;;
13263;SDS011;6700;51.988;7.646;2022-08-01T10:54:19;3.50;;;3.20;;
13263;SDS011;6700;51.988;7.646;2022-08-01T10:56:52;4.57;;;3.78;;
13263;SDS011;6700;51.988;7.646;2022-08-01T10:59:24;5.07;;;3.90;;
13263;SDS011;6700;51.988;7.646;2022-08-01T11:02:11;6.78;;;4.50;;
13263;SDS011;6700;51.988;7.646;2022-08-01T11:04:53;5.40;;;3.75;;
13263;SDS011;6700;51.988;7.646;2022-08-01T11:07:23;3.80;;;3.50;;
13263;SDS011;6700;51.988;7.646;2022-08-01T11:12:49;6.13;;;4.15;;
13263;SDS011;6700;51.988;7.646;2022-08-01T11:15:17;7.82;;;4.15;;
13263;SDS011;6700;51.988;7.646;2022-08-01T11:17:57;5.50;;;3.35;;
13263;SDS011;6700;51.988;7.646;2022-08-01T11:20:27;6.03;;;3.33;;
13263;SDS011;6700;51.988;7.646;2022-08-01T11:28:23;4.65;;;3.15;;
13263;SDS011;6700;51.988;7.646;2022-08-01T11:41:20;5.10;;;4.53;;
13263;SDS011;6700;51.988;7.646;2022-08-01T11:44:11;4.45;;;3.95;;
13263;SDS011;6700;51.988;7.646;2022-08-01T11:52:09;5.68;;;5.10;;
13263;SDS011;6700;51.988;7.646;2022-08-01T11:54:39;5.28;;;4.80;;
13263;SDS011;6700;51.988;7.646;2022-08-01T11:57:10;5.07;;;4.60;;
13263;SDS011;6700;51.988;7.646;2022-08-01T11:59:42;5.38;;;4.88;;
13263;SDS011;6700;51.988;7.646;2022-08-01T12:02:30;8.18;;;5.13;;
13263;SDS011;6700;51.988;7.646;2022-08-01T12:05:01;5.65;;;5.00;;
13263;SDS011;6700;51.988;7.646;2022-08-01T12:07:31;6.90;;;6.20;;
13263;SDS011;6700;51.988;7.646;2022-08-01T12:12:27;7.18;;;6.30;;
13263;SDS011;6700;51.988;7.646;2022-08-01T12:15:01;8.18;;;6.43;;
13263;SDS011;6700;51.988;7.646;2022-08-01T12:17:35;7.47;;;5.93;;
13263;SDS011;6700;51.988;7.646;2022-08-01T12:20:03;10.60;;;7.50;;
13263;SDS011;6700;51.988;7.646;2022-08-01T12:22:31;21.00;;;8.00;;
13263;SDS011;6700;51.988;7.646;2022-08-01T12:25:08;7.90;;;6.95;;
13263;SDS011;6700;51.988;7.646;2022-08-01T12:27:39;7.38;;;6.43;;
13263;SDS011;6700;51.988;7.646;2022-08-01T12:30:08;6.90;;;5.68;;
13263;SDS011;6700;51.988;7.646;2022-08-01T12:32:38;6.47;;;5.97;;
13263;SDS011;6700;51.988;7.646;2022-08-01T12:35:11;10.27;;;6.65;;
13263;SDS011;6700;51.988;7.646;2022-08-01T12:37:44;8.85;;;7.22;;
13263;SDS011;6700;51.988;7.646;2022-08-01T12:40:14;7.95;;;6.25;;
13263;SDS011;6700;51.988;7.646;2022-08-01T12:42:42;7.32;;;6.63;;
13263;SDS011;6700;51.988;7.646;2022-08-01T12:45:12;12.82;;;7.38;;
13263;SDS011;6700;51.988;7.646;2022-08-01T12:47:41;8.38;;;5.95;;
13263;SDS011;6700;51.988;7.646;2022-08-01T12:50:16;9.70;;;6.13;;
13263;SDS011;6700;51.988;7.646;2022-08-01T12:52:44;8.48;;;6.32;;
13263;SDS011;6700;51.988;7.646;2022-08-01T12:55:14;7.22;;;5.93;;
13263;SDS011;6700;51.988;7.646;2022-08-01T12:57:49;8.73;;;7.00;;
13263;SDS011;6700;51.988;7.646;2022-08-01T13:05:40;9.85;;;6.03;;
13263;SDS011;6700;51.988;7.646;2022-08-01T13:08:12;6.75;;;4.45;;
13263;SDS011;6700;51.988;7.646;2022-08-01T13:10:40;7.45;;;4.45;;
13263;SDS011;6700;51.988;7.646;2022-08-01T13:13:07;5.70;;;4.10;;
13263;SDS011;6700;51.988;7.646;2022-08-01T13:15:56;6.25;;;3.90;;
13263;SDS011;6700;51.988;7.646;2022-08-01T13:18:31;9.27;;;4.18;;
13263;SDS011;6700;51.988;7.646;2022-08-01T13:21:12;6.00;;;2.95;;
13263;SDS011;6700;51.988;7.646;2022-08-01T13:23:41;4.60;;;2.72;;
13263;SDS011;6700;51.988;7.646;2022-08-01T13:26:40;5.50;;;2.75;;
13263;SDS011;6700;51.988;7.646;2022-08-01T13:29:08;4.75;;;2.70;;
13263;SDS011;6700;51.988;7.646;2022-08-01T13:31:37;2.58;;;2.38;;
13263;SDS011;6700;51.988;7.646;2022-08-01T13:34:05;6.28;;;2.40;;
13263;SDS011;6700;51.988;7.646;2022-08-01T13:36:32;4.05;;;2.10;;
13263;SDS011;6700;51.988;7.646;2022-08-01T13:39:00;4.45;;;2.38;;
13263;SDS011;6700;51.988;7.646;2022-08-01T13:41:46;4.22;;;2.33;;
13263;SDS011;6700;51.988;7.646;2022-08-01T13:44:14;2.35;;;2.13;;
13263;SDS011;6700;51.988;7.646;2022-08-01T13:46:42;3.03;;;2.42;;
13263;SDS011;6700;51.988;7.646;2022-08-01T13:49:15;5.88;;;2.70;;
13263;SDS011;6700;51.988;7.646;2022-08-01T13:51:44;4.13;;;2.40;;
13263;SDS011;6700;51.988;7.646;2022-08-01T13:54:12;4.68;;;2.40;;
13263;SDS011;6700;51.988;7.646;2022-08-01T13:56:40;3.00;;;2.50;;
13263;SDS011;6700;51.988;7.646;2022-08-01T13:59:08;8.02;;;3.90;;
13263;SDS011;6700;51.988;7.646;2022-08-01T14:01:36;4.70;;;3.10;;
13263;SDS011;6700;51.988;7.646;2022-08-01T14:04:04;3.58;;;2.70;;
13263;SDS011;6700;51.988;7.646;2022-08-01T14:06:31;13.02;;;3.55;;
13263;SDS011;6700;51.988;7.646;2022-08-01T14:09:02;7.28;;;2.80;;
13263;SDS011;6700;51.988;7.646;2022-08-01T14:11:43;5.05;;;2.70;;
13263;SDS011;6700;51.988;7.646;2022-08-01T14:14:11;6.88;;;3.40;;
13263;SDS011;6700;51.988;7.646;2022-08-01T14:16:39;6.63;;;3.40;;
13263;SDS011;6700;51.988;7.646;2022-08-01T14:19:10;6.25;;;3.22;;
13263;SDS011;6700;51.988;7.646;2022-08-01T14:21:37;8.20;;;3.15;;
13263;SDS011;6700;51.988;7.646;2022-08-01T14:24:04;4.30;;;2.50;;
13263;SDS011;6700;51.988;7.646;2022-08-01T14:26:32;5.13;;;3.22;;
13263;SDS011;6700;51.988;7.646;2022-08-01T14:29:02;6.85;;;2.70;;
13263;SDS011;6700;51.988;7.646;2022-08-01T14:31:29;7.45;;;3.17;;
13263;SDS011;6700;51.988;7.646;2022-08-01T14:33:59;6.95;;;2.90;;
13263;SDS011;6700;51.988;7.646;2022-08-01T14:36:26;3.88;;;2.88;;
13263;SDS011;6700;51.988;7.646;2022-08-01T14:38:58;6.28;;;3.13;;
13263;SDS011;6700;51.988;7.646;2022-08-01T14:41:27;9.57;;;3.25;;
13263;SDS011;6700;51.988;7.646;2022-08-01T14:43:56;11.70;;;3.90;;
13263;SDS011;6700;51.988;7.646;2022-08-01T14:46:24;5.78;;;3.00;;
13263;SDS011;6700;51.988;7.646;2022-08-01T14:48:51;5.07;;;2.67;;
13263;SDS011;6700;51.988;7.646;2022-08-01T14:51:18;4.50;;;2.65;;
13263;SDS011;6700;51.988;7.646;2022-08-01T14:53:45;8.82;;;3.80;;
13263;SDS011;6700;51.988;7.646;2022-08-01T14:56:18;4.15;;;3.17;;
13263;SDS011;6700;51.988;7.646;2022-08-01T14:58:45;3.67;;;2.90;;
13263;SDS011;6700;51.988;7.646;2022-08-01T15:01:13;7.28;;;3.33;;
13263;SDS011;6700;51.988;7.646;2022-08-01T15:03:41;7.57;;;3.53;;
13263;SDS011;6700;51.988;7.646;2022-08-01T15:06:08;5.95;;;2.70;;
13263;SDS011;6700;51.988;7.646;2022-08-01T15:08:37;4.70;;;3.05;;
13263;SDS011;6700;51.988;7.646;2022-08-01T15:11:05;6.38;;;3.50;;
13263;SDS011;6700;51.988;7.646;2022-08-01T15:13:33;5.95;;;3.00;;
13263;SDS011;6700;51.988;7.646;2022-08-01T15:16:07;5.78;;;3.50;;
13263;SDS011;6700;51.988;7.646;2022-08-01T15:18:37;3.58;;;2.65;;
13263;SDS011;6700;51.988;7.646;2022-08-01T15:21:04;7.22;;;2.90;;
13263;SDS011;6700;51.988;7.646;2022-08-01T15:23:32;4.13;;;2.60;;
13263;SDS011;6700;51.988;7.646;2022-08-01T15:26:03;6.22;;;2.92;;
13263;SDS011;6700;51.988;7.646;2022-08-01T15:28:30;5.95;;;2.78;;
13263;SDS011;6700;51.988;7.646;2022-08-01T15:30:58;7.53;;;3.53;;
13263;SDS011;6700;51.988;7.646;2022-08-01T15:33:27;7.68;;;2.95;;
13263;SDS011;6700;51.988;7.646;2022-08-01T15:35:54;6.07;;;2.90;;
13263;SDS011;6700;51.988;7.646;2022-08-01T15:38:22;4.68;;;2.42;;
13263;SDS011;6700;51.988;7.646;2022-08-01T15:40:50;2.28;;;2.08;;
13263;SDS011;6700;51.988;7.646;2022-08-01T15:43:20;3.67;;;2.40;;
13263;SDS011;6700;51.988;7.646;2022-08-01T15:45:47;5.00;;;2.63;;
13263;SDS011;6700;51.988;7.646;2022-08-01T15:48:15;4.25;;;2.40;;
13263;SDS011;6700;51.988;7.646;2022-08-01T15:50:43;4.68;;;2.08;;
13263;SDS011;6700;51.988;7.646;2022-08-01T15:53:10;7.03;;;2.72;;
13263;SDS011;6700;51.988;7.646;2022-08-01T15:55:38;7.43;;;2.72;;
13263;SDS011;6700;51.988;7.646;2022-08-01T15:58:05;6.20;;;2.97;;
13263;SDS011;6700;51.988;7.646;2022-08-01T16:00:37;2.92;;;2.50;;
13263;SDS011;6700;51.988;7.646;2022-08-01T16:03:08;5.60;;;3.10;;
13263;SDS011;6700;51.988;7.646;2022-08-01T16:05:37;6.45;;;2.95;;
13263;SDS011;6700;51.988;7.646;2022-08-01T16:08:12;6.18;;;3.80;;